Serro, Brazil
Current Conditions -  °F | °C
As of 10:00 PM on Friday 24 Oct 2014 (Local Time) from SBLS Reporting Station
Clear Clear  
Wind Chill: 75°   Ceiling: Unl
Heat Index: 75°   Visibility: 6mi
Dew Point: 59°   Wind: 8mph
Humidity: 57%   Direction: 150°SSE
Pressure: 30"   Gusts: NA
Location:  18.6°S, 43.38°W
Report Text: SBLS 250000Z 15007KT CAVOK 24/15 Q1016
Loading
Personal Weather Stations






























Interactive Weather Map
Tropical Storm Tracking
New forecast layout! Learn more

10-Day Weather Forecast

Advertisements
Track Severe Weather on mobile